createdAt,value
2023-04-26T00:01:31.090Z,13.95
2023-04-26T00:03:58.346Z,13.97
2023-04-26T00:06:27.430Z,13.92
2023-04-26T00:08:54.995Z,13.93
2023-04-26T00:11:23.047Z,13.91
2023-04-26T00:13:49.893Z,13.92
2023-04-26T00:16:16.808Z,13.91
2023-04-26T00:18:43.465Z,13.91
2023-04-26T00:21:10.481Z,13.87
2023-04-26T00:23:37.067Z,13.88
2023-04-26T00:26:04.390Z,13.86
2023-04-26T00:28:31.509Z,13.85
2023-04-26T00:30:58.317Z,13.85
2023-04-26T00:33:26.073Z,13.84
2023-04-26T00:35:52.899Z,13.82
2023-04-26T00:38:19.704Z,13.81
2023-04-26T00:40:46.469Z,13.80
2023-04-26T00:43:13.214Z,13.81
2023-04-26T00:45:39.972Z,13.80
2023-04-26T00:48:06.816Z,13.79
2023-04-26T00:50:34.199Z,13.75
2023-04-26T00:53:03.786Z,13.76
2023-04-26T00:55:30.525Z,13.75
2023-04-26T00:57:57.826Z,13.75
2023-04-26T01:00:24.566Z,13.75
2023-04-26T01:02:52.220Z,13.72
2023-04-26T01:05:19.422Z,13.71
2023-04-26T01:07:46.496Z,13.72
2023-04-26T01:10:13.323Z,13.69
2023-04-26T01:12:43.224Z,13.67
2023-04-26T01:15:11.362Z,13.67
2023-04-26T01:17:38.435Z,13.67
2023-04-26T01:20:06.076Z,13.67
2023-04-26T01:22:34.442Z,13.65
2023-04-26T01:25:04.348Z,13.63
2023-04-26T01:27:32.852Z,13.61
2023-04-26T01:29:59.575Z,13.61
2023-04-26T01:32:26.339Z,13.61
2023-04-26T01:34:53.101Z,13.61
2023-04-26T01:37:19.693Z,13.60
2023-04-26T01:39:46.638Z,13.58
2023-04-26T01:42:13.407Z,13.57
2023-04-26T01:44:40.476Z,13.57
2023-04-26T01:47:07.341Z,13.55
2023-04-26T01:49:34.440Z,13.55
2023-04-26T01:52:01.371Z,13.53
2023-04-26T01:54:28.051Z,13.53
2023-04-26T01:56:54.666Z,13.51
2023-04-26T01:59:21.458Z,13.50
2023-04-26T02:01:48.235Z,13.52
2023-04-26T02:04:14.956Z,13.49
2023-04-26T02:06:42.377Z,13.48
2023-04-26T02:09:12.211Z,13.47
2023-04-26T02:11:41.276Z,13.47
2023-04-26T02:14:08.094Z,13.47
2023-04-26T02:16:35.248Z,13.44
2023-04-26T02:19:03.463Z,13.44
2023-04-26T02:21:30.662Z,13.42
2023-04-26T02:23:57.588Z,13.42
2023-04-26T02:26:24.352Z,13.42
2023-04-26T02:28:51.322Z,13.40
2023-04-26T02:31:18.214Z,13.38
2023-04-26T02:33:45.030Z,13.39
2023-04-26T02:36:12.510Z,13.39
2023-04-26T02:38:39.490Z,13.37
2023-04-26T02:41:06.647Z,13.35
2023-04-26T02:43:33.749Z,13.33
2023-04-26T02:46:01.403Z,13.34
2023-04-26T02:48:29.093Z,13.32
2023-04-26T02:50:57.227Z,13.32
2023-04-26T02:53:24.392Z,13.31
2023-04-26T02:55:51.404Z,13.31
2023-04-26T02:58:18.476Z,13.28
2023-04-26T03:00:47.663Z,13.30
2023-04-26T03:03:15.558Z,13.27
2023-04-26T03:05:42.815Z,13.24
2023-04-26T03:08:12.570Z,13.23
2023-04-26T03:10:39.210Z,13.23
2023-04-26T03:13:06.004Z,13.21
2023-04-26T03:15:32.830Z,13.24
2023-04-26T03:17:59.557Z,13.23
2023-04-26T03:20:27.261Z,13.19
2023-04-26T03:22:55.027Z,13.19
2023-04-26T03:25:22.167Z,13.18
2023-04-26T03:27:48.811Z,13.15
2023-04-26T03:30:15.959Z,13.14
2023-04-26T03:32:44.572Z,13.14
2023-04-26T03:35:12.037Z,13.14
2023-04-26T03:37:42.970Z,13.12
2023-04-26T03:40:12.868Z,13.10
2023-04-26T03:42:39.874Z,13.12
2023-04-26T03:45:07.321Z,13.09
2023-04-26T03:47:35.343Z,13.08
2023-04-26T03:50:02.400Z,13.09
2023-04-26T03:52:30.025Z,13.07
2023-04-26T03:54:56.930Z,13.07
2023-04-26T03:57:23.488Z,13.06
2023-04-26T03:59:50.661Z,13.05
2023-04-26T04:02:17.576Z,13.05
2023-04-26T04:04:44.841Z,13.04
2023-04-26T04:07:11.908Z,13.03
2023-04-26T04:09:39.092Z,12.99
2023-04-26T04:12:05.987Z,13.02
2023-04-26T04:14:33.114Z,13.02
2023-04-26T04:16:59.939Z,12.99
2023-04-26T04:19:28.589Z,12.98
2023-04-26T04:21:56.311Z,12.98
2023-04-26T04:24:24.186Z,12.99
2023-04-26T04:26:51.874Z,12.98
2023-04-26T04:29:18.809Z,12.98
2023-04-26T04:31:46.132Z,12.95
2023-04-26T04:34:13.140Z,12.96
2023-04-26T04:36:41.754Z,12.94
2023-04-26T04:39:13.471Z,12.95
2023-04-26T04:41:47.509Z,12.92
2023-04-26T04:44:18.609Z,13.13
2023-04-26T04:46:45.568Z,13.03
2023-04-26T04:49:12.941Z,12.97
2023-04-26T04:51:39.895Z,12.93
2023-04-26T04:54:14.304Z,12.92
2023-04-26T04:56:42.115Z,12.89
2023-04-26T04:59:11.012Z,12.87
2023-04-26T05:01:38.773Z,12.87
2023-04-26T05:04:10.062Z,12.86
2023-04-26T05:06:37.605Z,12.84
2023-04-26T05:09:05.935Z,12.82
2023-04-26T05:11:33.210Z,12.83
2023-04-26T05:14:01.671Z,12.84
2023-04-26T05:16:29.260Z,12.83
2023-04-26T05:18:56.492Z,12.80
2023-04-26T05:21:24.084Z,12.80
2023-04-26T05:23:51.260Z,12.82
2023-04-26T05:26:18.600Z,12.80
2023-04-26T05:28:45.856Z,12.79
2023-04-26T05:31:29.855Z,12.79
2023-04-26T05:34:08.451Z,12.78
2023-04-26T05:36:39.751Z,12.78
2023-04-26T05:39:07.660Z,12.78
2023-04-26T05:41:34.355Z,12.78
2023-04-26T05:44:01.253Z,12.78
2023-04-26T05:46:28.219Z,12.78
2023-04-26T05:48:55.287Z,12.77
2023-04-26T05:51:22.012Z,12.76
2023-04-26T05:53:48.682Z,12.77
2023-04-26T05:56:16.720Z,12.75
2023-04-26T05:58:44.742Z,12.77
2023-04-26T06:01:12.386Z,12.77
2023-04-26T06:03:39.431Z,12.78
2023-04-26T06:06:08.006Z,12.76
2023-04-26T06:08:35.540Z,12.78
2023-04-26T06:11:02.416Z,12.77
2023-04-26T06:13:29.072Z,12.79
2023-04-26T06:15:55.905Z,12.79
2023-04-26T06:18:22.682Z,12.79
2023-04-26T06:20:49.420Z,12.79
2023-04-26T06:23:16.137Z,12.87
2023-04-26T06:25:45.634Z,12.88
2023-04-26T06:28:13.327Z,12.85
2023-04-26T06:30:40.187Z,12.89
2023-04-26T06:33:07.765Z,12.88
2023-04-26T06:35:41.994Z,13.01
2023-04-26T06:38:10.099Z,12.93
2023-04-26T06:40:37.289Z,12.92
2023-04-26T06:43:04.238Z,12.98
2023-04-26T06:45:49.593Z,13.23
2023-04-26T06:48:19.492Z,13.38
2023-04-26T06:50:46.374Z,13.41
2023-04-26T06:53:14.126Z,13.40
2023-04-26T06:55:40.925Z,13.51
2023-04-26T06:58:07.735Z,13.52
2023-04-26T07:00:34.530Z,13.52
2023-04-26T07:03:01.573Z,13.52
2023-04-26T07:05:28.703Z,13.56
2023-04-26T07:07:55.417Z,13.45
2023-04-26T07:10:22.308Z,13.34
2023-04-26T07:12:49.107Z,13.32
2023-04-26T07:15:15.999Z,13.33
2023-04-26T07:17:43.017Z,13.32
2023-04-26T07:20:10.413Z,13.32
2023-04-26T07:22:37.198Z,13.33
2023-04-26T07:25:05.011Z,13.29
2023-04-26T07:27:31.996Z,13.33
2023-04-26T07:29:59.393Z,13.36
2023-04-26T07:32:26.097Z,13.36
2023-04-26T07:34:53.023Z,13.35
2023-04-26T07:37:19.761Z,13.35
2023-04-26T07:39:46.661Z,13.34
2023-04-26T07:42:13.286Z,13.32
2023-04-26T07:44:39.894Z,13.32
2023-04-26T07:47:13.124Z,13.31
2023-04-26T07:49:39.853Z,13.32
2023-04-26T07:52:07.969Z,13.29
2023-04-26T07:54:35.364Z,13.28
2023-04-26T07:57:02.010Z,13.28
2023-04-26T07:59:28.669Z,13.28
2023-04-26T08:01:55.304Z,13.29
2023-04-26T08:04:32.717Z,13.31
2023-04-26T08:07:01.599Z,13.37
2023-04-26T08:09:29.393Z,13.54
2023-04-26T08:11:56.939Z,13.61
2023-04-26T08:14:23.647Z,13.65
2023-04-26T08:16:51.674Z,13.72
2023-04-26T08:19:18.447Z,13.71
2023-04-26T08:21:45.158Z,13.67
2023-04-26T08:24:11.814Z,13.56
2023-04-26T08:26:38.774Z,13.51
2023-04-26T08:29:05.357Z,13.49
2023-04-26T08:31:32.290Z,13.50
2023-04-26T08:33:59.044Z,13.49
2023-04-26T08:36:26.353Z,13.46
2023-04-26T08:38:53.029Z,13.46
2023-04-26T08:41:23.005Z,13.45
2023-04-26T08:43:50.137Z,13.46
2023-04-26T08:46:20.074Z,13.44
2023-04-26T08:48:58.575Z,13.45
2023-04-26T08:51:27.329Z,13.45
2023-04-26T08:53:55.898Z,13.44
2023-04-26T08:56:24.182Z,13.44
2023-04-26T08:58:52.013Z,13.43
2023-04-26T09:01:21.832Z,13.45
2023-04-26T09:03:48.903Z,13.45
2023-04-26T09:06:16.563Z,13.44
2023-04-26T09:08:44.720Z,13.43
2023-04-26T09:11:11.524Z,13.44
2023-04-26T09:13:38.191Z,13.43
2023-04-26T09:16:05.314Z,13.44
2023-04-26T09:18:34.031Z,13.44
2023-04-26T09:21:08.566Z,13.44
2023-04-26T09:23:35.724Z,13.44
2023-04-26T09:26:18.467Z,13.44
2023-04-26T09:28:46.556Z,13.45
2023-04-26T09:31:43.199Z,13.45
2023-04-26T09:34:12.223Z,13.47
2023-04-26T09:36:54.851Z,13.47
2023-04-26T09:39:37.478Z,13.47
2023-04-26T09:42:05.153Z,13.46
2023-04-26T09:44:32.475Z,13.47
2023-04-26T09:47:02.297Z,13.48
2023-04-26T09:49:33.431Z,13.49
2023-04-26T09:52:09.197Z,13.50
2023-04-26T09:54:43.304Z,13.50
2023-04-26T09:57:12.046Z,13.53
2023-04-26T09:59:49.862Z,13.52
2023-04-26T10:02:27.641Z,13.51
2023-04-26T10:04:57.344Z,13.51
2023-04-26T10:07:25.567Z,13.53
2023-04-26T10:09:53.484Z,13.52
2023-04-26T10:12:20.774Z,13.54
2023-04-26T10:14:48.496Z,13.56
2023-04-26T10:17:15.184Z,13.56
2023-04-26T10:19:46.831Z,13.58
2023-04-26T10:22:20.917Z,13.58
2023-04-26T10:24:49.064Z,13.59
2023-04-26T10:27:16.255Z,13.59
2023-04-26T10:29:55.190Z,13.61
2023-04-26T10:32:22.703Z,13.67
2023-04-26T10:35:14.096Z,13.95
2023-04-26T10:37:59.891Z,13.79
2023-04-26T10:40:32.792Z,13.76
2023-04-26T10:43:20.660Z,13.74
2023-04-26T10:45:48.896Z,13.76
2023-04-26T10:48:21.232Z,13.76
2023-04-26T10:51:08.398Z,13.77
2023-04-26T10:53:47.203Z,13.78
2023-04-26T10:56:23.442Z,13.79
2023-04-26T10:59:22.490Z,13.81
2023-04-26T11:01:54.758Z,13.82
2023-04-26T11:04:22.443Z,13.84
2023-04-26T11:06:53.094Z,13.83
2023-04-26T11:09:39.805Z,13.85
2023-04-26T11:12:07.878Z,13.83
2023-04-26T11:14:35.499Z,13.84
2023-04-26T11:17:06.871Z,13.87
2023-04-26T11:19:33.985Z,13.91
2023-04-26T11:22:01.775Z,13.90
2023-04-26T11:24:32.079Z,13.90
2023-04-26T11:26:59.457Z,13.95
2023-04-26T11:29:27.034Z,13.93
2023-04-26T11:31:58.513Z,13.92
2023-04-26T11:34:35.269Z,13.95
2023-04-26T11:37:08.449Z,13.96
2023-04-26T11:39:38.232Z,13.98
2023-04-26T11:42:11.910Z,14.01
2023-04-26T11:44:40.852Z,14.03
2023-04-26T11:47:08.359Z,14.05
2023-04-26T11:49:37.626Z,14.05
2023-04-26T11:52:06.495Z,14.08
2023-04-26T11:54:35.861Z,14.09
2023-04-26T11:57:15.289Z,14.11
2023-04-26T11:59:43.394Z,14.12
2023-04-26T12:02:13.000Z,14.13
2023-04-26T12:04:41.264Z,14.14
2023-04-26T12:07:08.701Z,14.16
2023-04-26T12:09:36.706Z,14.16
2023-04-26T12:12:07.490Z,14.18
2023-04-26T12:14:38.562Z,14.18
2023-04-26T12:17:06.820Z,14.18
2023-04-26T12:19:37.964Z,14.19
2023-04-26T12:22:06.954Z,14.21
2023-04-26T12:24:35.868Z,14.22
2023-04-26T12:27:06.102Z,14.44
2023-04-26T12:29:33.775Z,14.53
2023-04-26T12:32:01.743Z,14.63
2023-04-26T12:34:28.673Z,14.57
2023-04-26T12:36:55.884Z,14.49
2023-04-26T12:39:22.775Z,14.57
2023-04-26T12:41:49.469Z,14.65
2023-04-26T12:44:16.295Z,14.69
2023-04-26T12:46:43.328Z,14.73
2023-04-26T12:49:10.262Z,14.92
2023-04-26T12:51:36.983Z,15.05
2023-04-26T12:54:03.962Z,15.15
2023-04-26T12:56:30.824Z,15.21
2023-04-26T12:58:57.542Z,15.18
2023-04-26T13:01:24.414Z,15.20
2023-04-26T13:03:51.308Z,15.22
2023-04-26T13:06:21.249Z,15.26
2023-04-26T13:08:47.908Z,15.18
2023-04-26T13:11:14.782Z,15.04
2023-04-26T13:13:44.397Z,14.96
2023-04-26T13:16:13.023Z,14.99
2023-04-26T13:18:40.689Z,15.06
2023-04-26T13:21:07.897Z,15.20
2023-04-26T13:23:35.011Z,15.13
2023-04-26T13:26:01.779Z,15.02
2023-04-26T13:28:28.753Z,14.94
2023-04-26T13:30:56.106Z,14.88
2023-04-26T13:33:23.280Z,14.90
2023-04-26T13:35:49.943Z,14.89
2023-04-26T13:38:17.188Z,14.88
2023-04-26T13:40:44.205Z,14.86
2023-04-26T13:43:11.212Z,14.90
2023-04-26T13:45:37.826Z,14.90
2023-04-26T13:48:04.669Z,14.95
2023-04-26T13:50:31.422Z,14.94
2023-04-26T13:52:58.272Z,14.97
2023-04-26T13:55:25.756Z,15.00
2023-04-26T13:57:52.576Z,14.96
2023-04-26T14:00:19.588Z,14.96
2023-04-26T14:02:47.249Z,14.93
2023-04-26T14:05:14.394Z,14.86
2023-04-26T14:07:41.743Z,14.86
2023-04-26T14:10:09.409Z,14.88
2023-04-26T14:12:36.173Z,14.86
2023-04-26T14:15:04.416Z,14.91
2023-04-26T14:17:32.590Z,14.91
2023-04-26T14:19:59.493Z,14.88
2023-04-26T14:22:27.099Z,14.95
2023-04-26T14:24:53.837Z,14.93
2023-04-26T14:27:20.891Z,14.91
2023-04-26T14:29:47.576Z,14.98
2023-04-26T14:32:14.409Z,14.98
2023-04-26T14:34:42.012Z,14.98
2023-04-26T14:37:09.153Z,14.98
2023-04-26T14:39:36.012Z,15.00
2023-04-26T14:42:05.494Z,15.01
2023-04-26T14:44:32.046Z,15.03
2023-04-26T14:46:58.778Z,15.04
2023-04-26T14:49:25.782Z,15.11
2023-04-26T14:51:53.644Z,15.12
2023-04-26T14:54:21.323Z,15.13
2023-04-26T14:56:48.908Z,15.12
2023-04-26T14:59:16.219Z,15.09
2023-04-26T15:01:43.163Z,15.12
2023-04-26T15:04:10.331Z,15.15
2023-04-26T15:06:37.217Z,15.15
2023-04-26T15:09:04.573Z,15.15
2023-04-26T15:11:31.338Z,15.16
2023-04-26T15:13:58.042Z,15.27
2023-04-26T15:16:24.720Z,15.40
2023-04-26T15:18:51.590Z,15.40
2023-04-26T15:21:19.512Z,15.40
2023-04-26T15:23:46.627Z,15.53
2023-04-26T15:26:13.820Z,15.50
2023-04-26T15:28:40.767Z,15.39
2023-04-26T15:31:11.586Z,15.32
2023-04-26T15:33:38.561Z,15.30
2023-04-26T15:36:05.765Z,15.28
2023-04-26T15:38:34.893Z,15.28
2023-04-26T15:41:01.606Z,15.36
2023-04-26T15:43:28.653Z,15.38
2023-04-26T15:45:55.427Z,15.45
2023-04-26T15:48:22.564Z,15.46
2023-04-26T15:50:50.675Z,15.49
2023-04-26T15:53:17.884Z,15.52
2023-04-26T15:55:44.797Z,15.55
2023-04-26T15:58:11.504Z,15.57
2023-04-26T16:00:38.198Z,15.47
2023-04-26T16:03:05.063Z,15.48
2023-04-26T16:05:32.073Z,15.48
2023-04-26T16:07:59.759Z,15.46
2023-04-26T16:10:27.053Z,15.52
2023-04-26T16:12:53.795Z,15.51
2023-04-26T16:15:20.678Z,15.52
2023-04-26T16:17:47.691Z,15.54
2023-04-26T16:20:15.178Z,15.58
2023-04-26T16:22:45.420Z,15.61
2023-04-26T16:25:16.367Z,15.62
2023-04-26T16:27:42.964Z,15.59
2023-04-26T16:30:09.905Z,15.53
2023-04-26T16:32:36.831Z,15.56
2023-04-26T16:35:03.531Z,15.62
2023-04-26T16:37:30.524Z,15.63
2023-04-26T16:39:57.305Z,15.61
2023-04-26T16:42:24.258Z,15.60
2023-04-26T16:44:51.112Z,15.62
2023-04-26T16:47:17.875Z,15.62
2023-04-26T16:49:44.603Z,15.63
2023-04-26T16:52:11.461Z,15.61
2023-04-26T16:54:38.316Z,15.63
2023-04-26T16:57:05.004Z,15.60
2023-04-26T16:59:31.846Z,15.49
2023-04-26T17:01:58.986Z,15.48
2023-04-26T17:04:26.415Z,15.50
2023-04-26T17:06:54.567Z,15.49
2023-04-26T17:09:21.397Z,15.43
2023-04-26T17:11:49.864Z,15.39
2023-04-26T17:14:16.648Z,15.40
2023-04-26T17:16:43.325Z,15.37
2023-04-26T17:19:10.244Z,15.32
2023-04-26T17:21:36.894Z,15.32
2023-04-26T17:24:03.762Z,15.34
2023-04-26T17:26:30.803Z,15.25
2023-04-26T17:28:57.468Z,15.19
2023-04-26T17:31:24.364Z,15.11
2023-04-26T17:33:51.231Z,15.10
2023-04-26T17:36:17.957Z,15.09
2023-04-26T17:38:44.626Z,15.05
2023-04-26T17:41:13.120Z,15.07
2023-04-26T17:43:40.378Z,15.08
2023-04-26T17:46:07.196Z,15.05
2023-04-26T17:48:33.804Z,15.13
2023-04-26T17:51:00.945Z,15.27
2023-04-26T17:53:27.870Z,15.36
2023-04-26T17:55:55.124Z,15.40
2023-04-26T17:58:21.950Z,15.48
2023-04-26T18:00:49.163Z,15.50
2023-04-26T18:03:16.330Z,15.39
2023-04-26T18:05:43.228Z,15.27
2023-04-26T18:08:09.903Z,15.22
2023-04-26T18:10:36.663Z,15.19
2023-04-26T18:13:03.480Z,15.17
2023-04-26T18:15:30.502Z,15.14
2023-04-26T18:17:57.241Z,15.13
2023-04-26T18:20:24.618Z,15.12
2023-04-26T18:22:51.792Z,15.10
2023-04-26T18:25:18.473Z,15.10
2023-04-26T18:27:46.733Z,15.06
2023-04-26T18:30:13.516Z,15.05
2023-04-26T18:32:40.193Z,15.05
2023-04-26T18:35:08.257Z,15.02
2023-04-26T18:37:35.201Z,15.01
2023-04-26T18:40:02.184Z,15.01
2023-04-26T18:42:28.992Z,14.99
2023-04-26T18:44:56.576Z,14.97
2023-04-26T18:47:23.504Z,14.97
2023-04-26T18:49:50.183Z,14.98
2023-04-26T18:52:16.926Z,14.95
2023-04-26T18:54:43.616Z,14.95
2023-04-26T18:57:10.763Z,14.92
2023-04-26T18:59:38.642Z,14.92
2023-04-26T19:02:05.557Z,14.89
2023-04-26T19:04:32.602Z,14.91
2023-04-26T19:07:00.758Z,14.90
2023-04-26T19:09:27.459Z,14.89
2023-04-26T19:11:54.123Z,14.88
2023-04-26T19:14:20.850Z,14.86
2023-04-26T19:16:47.624Z,14.87
2023-04-26T19:19:14.771Z,14.87
2023-04-26T19:21:41.515Z,14.85
2023-04-26T19:24:08.338Z,14.86
2023-04-26T19:26:37.285Z,14.84
2023-04-26T19:29:06.192Z,14.84
2023-04-26T19:31:33.926Z,14.84
2023-04-26T19:34:00.831Z,14.84
2023-04-26T19:36:27.543Z,14.82
2023-04-26T19:38:54.468Z,14.82
2023-04-26T19:41:21.510Z,14.81
2023-04-26T19:43:48.281Z,14.81
2023-04-26T19:46:15.419Z,14.81
2023-04-26T19:48:42.349Z,14.80
2023-04-26T19:51:15.066Z,14.79
2023-04-26T19:53:41.876Z,14.79
2023-04-26T19:56:11.017Z,14.79
2023-04-26T19:58:38.739Z,14.77
2023-04-26T20:01:05.805Z,14.77
2023-04-26T20:03:33.436Z,14.78
2023-04-26T20:06:00.514Z,14.75
2023-04-26T20:08:27.420Z,14.75
2023-04-26T20:10:54.514Z,14.74
2023-04-26T20:13:21.324Z,14.73
2023-04-26T20:15:48.192Z,14.72
2023-04-26T20:18:15.027Z,14.73
2023-04-26T20:20:41.614Z,14.71
2023-04-26T20:23:08.363Z,14.71
2023-04-26T20:25:34.984Z,14.71
2023-04-26T20:28:03.623Z,14.72
2023-04-26T20:30:33.952Z,14.71
2023-04-26T20:33:00.811Z,14.69
2023-04-26T20:35:27.599Z,14.68
2023-04-26T20:37:54.451Z,14.68
2023-04-26T20:40:24.090Z,14.68
2023-04-26T20:42:51.342Z,14.68
2023-04-26T20:45:18.117Z,14.65
2023-04-26T20:47:45.698Z,14.66
2023-04-26T20:50:12.783Z,14.65
2023-04-26T20:52:39.725Z,14.65
2023-04-26T20:55:07.182Z,14.65
2023-04-26T20:57:34.113Z,14.63
2023-04-26T21:00:01.089Z,14.63
2023-04-26T21:02:28.061Z,14.63
2023-04-26T21:04:55.122Z,14.62
2023-04-26T21:07:21.919Z,14.63
2023-04-26T21:09:49.294Z,14.63
2023-04-26T21:12:16.178Z,14.61
2023-04-26T21:14:45.759Z,14.62
2023-04-26T21:17:12.500Z,14.61
2023-04-26T21:19:39.428Z,14.59
2023-04-26T21:22:06.303Z,14.60
2023-04-26T21:24:32.962Z,14.60
2023-04-26T21:26:59.731Z,14.60
2023-04-26T21:29:26.391Z,14.61
2023-04-26T21:31:53.085Z,14.60
2023-04-26T21:34:20.301Z,14.58
2023-04-26T21:36:47.482Z,14.58
2023-04-26T21:39:14.604Z,14.57
2023-04-26T21:41:41.622Z,14.58
2023-04-26T21:44:08.441Z,14.59
2023-04-26T21:46:35.085Z,14.60
2023-04-26T21:49:01.779Z,14.58
2023-04-26T21:51:28.496Z,14.57
2023-04-26T21:53:55.290Z,14.57
2023-04-26T21:56:21.951Z,14.56
2023-04-26T21:58:48.686Z,14.57
2023-04-26T22:01:15.653Z,14.72
2023-04-26T22:03:42.837Z,14.84
2023-04-26T22:06:09.914Z,14.87
2023-04-26T22:08:36.767Z,14.85
2023-04-26T22:11:03.769Z,14.84
2023-04-26T22:13:31.360Z,14.80
2023-04-26T22:15:58.512Z,14.78
2023-04-26T22:18:26.430Z,14.77
2023-04-26T22:20:53.719Z,14.72
2023-04-26T22:23:20.440Z,14.71
2023-04-26T22:25:47.114Z,14.70
2023-04-26T22:28:13.778Z,14.66
2023-04-26T22:30:40.458Z,14.66
2023-04-26T22:33:07.385Z,14.61
2023-04-26T22:35:35.180Z,14.60
2023-04-26T22:38:01.990Z,14.57
2023-04-26T22:40:28.745Z,14.57
2023-04-26T22:42:55.618Z,14.54
2023-04-26T22:45:22.831Z,14.54
2023-04-26T22:47:49.695Z,14.54
2023-04-26T22:50:16.568Z,14.52
2023-04-26T22:52:43.231Z,14.50
2023-04-26T22:55:10.208Z,14.47
2023-04-26T22:57:39.959Z,14.47
2023-04-26T23:00:09.998Z,14.44
2023-04-26T23:02:37.133Z,14.42
2023-04-26T23:05:05.482Z,14.43
2023-04-26T23:07:33.526Z,14.40
2023-04-26T23:10:00.286Z,14.41
2023-04-26T23:12:27.719Z,14.42
2023-04-26T23:14:58.494Z,14.42
2023-04-26T23:17:26.685Z,14.41
2023-04-26T23:19:53.801Z,14.42
2023-04-26T23:22:20.939Z,14.44
2023-04-26T23:24:47.798Z,14.43
2023-04-26T23:27:14.607Z,14.41
2023-04-26T23:29:41.477Z,14.39
2023-04-26T23:32:08.161Z,14.37
2023-04-26T23:34:34.870Z,14.36
2023-04-26T23:37:06.791Z,14.34
2023-04-26T23:39:35.018Z,14.32
2023-04-26T23:42:02.271Z,14.32
2023-04-26T23:44:29.065Z,14.31
2023-04-26T23:46:55.849Z,14.29
2023-04-26T23:49:22.595Z,14.30
2023-04-26T23:51:49.231Z,14.27
2023-04-26T23:54:16.588Z,14.26
2023-04-26T23:56:43.433Z,14.23
2023-04-26T23:59:10.216Z,14.21
